Rushing, Arkansas
Current Conditions -  °F | °C
As of 10:56 AM on Thursday 23 Oct 2014 (Local Time) from KSRC Reporting Station
Clear Clear  
Wind Chill: 53°   Ceiling: Unl
Heat Index: 53°   Visibility: 10mi
Dew Point: 47°   Wind: 5mph
Humidity: 80%   Direction: 10°N
Pressure: 30.24"   Gusts: NA
Location:  35.4585°N, 92.3035°W
Report Text: KSRC 231556Z AUTO 01004KT 10SM CLR 12/08 A3024 RMK AO2 SLP247 T01170083 TSNO
Loading
Personal Weather Stations






























Interactive Weather Map
Tropical Storm Tracking
New forecast layout! Learn more

10-Day Weather Forecast

Advertisements
Track Severe Weather on mobile